KGSO

Piedmont Triad International Airport

Greensboro, North Carolina, USA
METAR KGSO 170654Z 29005KT 10SM CLR 07/04 A2998 RMK AO2 SLP151 T00720039
Observed Flight Rules
Dec-17 @ 06:54 UTC (35 minutes ago) Visual Flight Rules
Wind Visibility Clouds
290° at 5 knots 10 miles
  • Clear skies
Temperatures Readings
Current 7°C / 45°F
Dewpoint 4°C / 39°F
Humidity 81%
Altimeter 29.98" Hg
Pressure 1015.1 hPa
Elevation 275
METAR KGSO 170654Z 29005KT 10SM CLR 07/04 A2998 RMK AO2 SLP151 T00720039
Observed Flight Rules
Dec-17 @ 06:54 UTC
(35 minutes ago)
VFR
Wind Visibility
290° at 5 knots 10 miles
Clouds
  • Clear skies
Temperature Dewpoint
7°C / 45°F 4°C / 39°F
Humidity Altimeter Pressure
81% 29.98" Hg 1015.1 hPa